createdAt,value
2022-07-29T00:00:07.550Z,19.43
2022-07-29T00:01:07.478Z,19.46
2022-07-29T00:02:07.397Z,19.42
2022-07-29T00:03:07.404Z,19.36
2022-07-29T00:04:07.311Z,19.31
2022-07-29T00:05:07.181Z,19.36
2022-07-29T00:06:07.104Z,19.38
2022-07-29T00:07:07.030Z,19.38
2022-07-29T00:08:10.696Z,19.42
2022-07-29T00:09:06.877Z,19.46
2022-07-29T00:10:06.800Z,19.39
2022-07-29T00:11:06.728Z,19.43
2022-07-29T00:12:06.660Z,19.43
2022-07-29T00:13:06.579Z,19.46
2022-07-29T00:14:06.506Z,19.38
2022-07-29T00:15:06.434Z,19.38
2022-07-29T00:16:06.397Z,19.33
2022-07-29T00:17:06.277Z,19.21
2022-07-29T00:18:06.204Z,19.27
2022-07-29T00:19:06.132Z,19.20
2022-07-29T00:20:06.051Z,19.25
2022-07-29T00:21:05.981Z,19.23
2022-07-29T00:22:05.905Z,19.25
2022-07-29T00:23:05.833Z,19.27
2022-07-29T00:24:05.751Z,19.28
2022-07-29T00:25:05.679Z,19.18
2022-07-29T00:26:05.605Z,19.35
2022-07-29T00:27:05.530Z,19.38
2022-07-29T00:28:05.455Z,19.40
2022-07-29T00:29:35.195Z,19.43
2022-07-29T00:30:05.307Z,19.45
2022-07-29T00:31:05.295Z,19.54
2022-07-29T00:32:05.246Z,19.54
2022-07-29T00:33:09.004Z,19.50
2022-07-29T00:34:05.014Z,19.55
2022-07-29T00:35:04.934Z,19.54
2022-07-29T00:36:04.856Z,19.61
2022-07-29T00:37:04.789Z,19.55
2022-07-29T00:38:04.713Z,19.61
2022-07-29T00:39:04.635Z,19.64
2022-07-29T00:40:04.560Z,19.65
2022-07-29T00:41:04.483Z,19.61
2022-07-29T00:42:04.407Z,19.64
2022-07-29T00:43:04.335Z,19.71
2022-07-29T00:44:04.264Z,19.68
2022-07-29T00:45:04.184Z,19.58
2022-07-29T00:46:04.113Z,19.63
2022-07-29T00:47:04.168Z,19.58
2022-07-29T00:48:03.957Z,19.57
2022-07-29T00:49:03.954Z,19.58
2022-07-29T00:50:03.809Z,19.53
2022-07-29T00:51:03.739Z,19.50
2022-07-29T00:52:03.661Z,19.48
2022-07-29T00:53:03.587Z,19.57
2022-07-29T00:54:03.512Z,19.57
2022-07-29T00:55:08.336Z,19.58
2022-07-29T00:56:03.362Z,19.60
2022-07-29T00:57:03.289Z,19.57
2022-07-29T00:58:03.215Z,19.53
2022-07-29T00:59:03.140Z,19.54
2022-07-29T01:00:03.065Z,19.43
2022-07-29T01:01:03.049Z,19.42
2022-07-29T01:02:03.009Z,19.42
2022-07-29T01:03:02.848Z,19.46
2022-07-29T01:04:02.764Z,19.45
2022-07-29T01:05:02.693Z,19.51
2022-07-29T01:06:02.614Z,19.50
2022-07-29T01:07:02.585Z,19.54
2022-07-29T01:08:02.469Z,19.61
2022-07-29T01:09:02.390Z,19.64
2022-07-29T01:10:02.317Z,19.69
2022-07-29T01:11:02.245Z,19.61
2022-07-29T01:12:02.167Z,19.69
2022-07-29T01:13:02.094Z,19.58
2022-07-29T01:14:02.016Z,19.58
2022-07-29T01:15:01.943Z,19.50
2022-07-29T01:16:01.921Z,19.51
2022-07-29T01:17:01.794Z,19.53
2022-07-29T01:18:01.719Z,19.46
2022-07-29T01:19:01.644Z,19.38
2022-07-29T01:20:01.569Z,19.31
2022-07-29T01:21:01.492Z,19.36
2022-07-29T01:22:01.415Z,19.32
2022-07-29T01:23:01.355Z,19.32
2022-07-29T01:24:01.266Z,19.40
2022-07-29T01:25:01.206Z,19.33
2022-07-29T01:26:01.119Z,19.38
2022-07-29T01:27:01.047Z,19.43
2022-07-29T01:28:00.968Z,19.50
2022-07-29T01:29:00.893Z,19.53
2022-07-29T01:30:00.825Z,19.64
2022-07-29T01:31:00.808Z,19.57
2022-07-29T01:32:01.261Z,19.57
2022-07-29T01:33:00.594Z,19.64
2022-07-29T01:34:00.524Z,19.71
2022-07-29T01:35:00.453Z,19.68
2022-07-29T01:36:00.369Z,19.65
2022-07-29T01:37:00.292Z,19.68
2022-07-29T01:38:00.227Z,19.71
2022-07-29T01:39:00.153Z,19.68
2022-07-29T01:40:00.097Z,19.50
2022-07-29T01:40:59.995Z,19.54
2022-07-29T01:41:59.921Z,19.45
2022-07-29T01:42:59.854Z,19.48
2022-07-29T01:43:59.773Z,19.46
2022-07-29T01:44:59.696Z,19.48
2022-07-29T01:45:59.627Z,19.43
2022-07-29T01:46:59.598Z,19.45
2022-07-29T01:47:59.478Z,19.43
2022-07-29T01:48:59.462Z,19.50
2022-07-29T01:49:59.324Z,19.51
2022-07-29T01:50:59.247Z,19.51
2022-07-29T01:51:59.172Z,19.53
2022-07-29T01:52:59.096Z,19.53
2022-07-29T01:53:59.021Z,19.58
2022-07-29T01:54:58.947Z,19.60
2022-07-29T01:55:59.016Z,19.57
2022-07-29T01:56:58.795Z,19.61
2022-07-29T01:57:58.722Z,19.53
2022-07-29T01:58:58.649Z,19.50
2022-07-29T01:59:58.572Z,19.36
2022-07-29T02:00:58.497Z,19.32
2022-07-29T02:01:58.453Z,19.33
2022-07-29T02:02:58.351Z,19.36
2022-07-29T02:03:58.280Z,19.31
2022-07-29T02:04:58.227Z,19.32
2022-07-29T02:05:58.128Z,19.36
2022-07-29T02:06:58.049Z,19.31
2022-07-29T02:07:57.982Z,19.39
2022-07-29T02:08:57.899Z,19.33
2022-07-29T02:09:57.831Z,19.32
2022-07-29T02:10:57.749Z,19.31
2022-07-29T02:11:57.675Z,19.32
2022-07-29T02:12:57.598Z,19.28
2022-07-29T02:13:57.533Z,19.25
2022-07-29T02:14:57.449Z,19.31
2022-07-29T02:15:57.467Z,19.21
2022-07-29T02:16:57.301Z,19.18
2022-07-29T02:17:57.230Z,19.17
2022-07-29T02:18:57.157Z,19.18
2022-07-29T02:19:57.075Z,19.17
2022-07-29T02:20:57.003Z,19.20
2022-07-29T02:21:56.927Z,19.14
2022-07-29T02:22:56.848Z,19.15
2022-07-29T02:23:56.776Z,19.24
2022-07-29T02:24:56.700Z,19.17
2022-07-29T02:25:56.626Z,19.21
2022-07-29T02:26:56.556Z,19.25
2022-07-29T02:27:56.482Z,19.25
2022-07-29T02:28:56.404Z,19.20
2022-07-29T02:29:56.340Z,19.24
2022-07-29T02:30:56.299Z,19.28
2022-07-29T02:31:56.181Z,19.25
2022-07-29T02:32:56.099Z,19.25
2022-07-29T02:33:56.024Z,19.32
2022-07-29T02:34:55.953Z,19.28
2022-07-29T02:35:55.875Z,19.31
2022-07-29T02:36:55.802Z,19.27
2022-07-29T02:37:55.725Z,19.24
2022-07-29T02:38:55.655Z,19.20
2022-07-29T02:39:55.575Z,19.18
2022-07-29T02:40:55.503Z,19.31
2022-07-29T02:41:55.427Z,19.31
2022-07-29T02:42:55.350Z,19.31
2022-07-29T02:43:55.276Z,19.24
2022-07-29T02:44:55.203Z,19.32
2022-07-29T02:45:55.125Z,19.31
2022-07-29T02:46:55.100Z,19.24
2022-07-29T02:47:54.980Z,19.24
2022-07-29T02:48:54.920Z,19.17
2022-07-29T02:49:54.827Z,19.01
2022-07-29T02:50:54.750Z,19.02
2022-07-29T02:51:54.677Z,18.94
2022-07-29T02:52:54.760Z,18.95
2022-07-29T02:53:54.530Z,18.83
2022-07-29T02:54:54.451Z,18.90
2022-07-29T02:55:54.379Z,18.90
2022-07-29T02:56:54.299Z,18.87
2022-07-29T02:57:55.678Z,18.87
2022-07-29T02:58:54.156Z,18.86
2022-07-29T02:59:54.079Z,18.89
2022-07-29T03:00:54.002Z,18.87
2022-07-29T03:01:53.951Z,18.80
2022-07-29T03:02:53.847Z,18.76
2022-07-29T03:03:53.774Z,18.80
2022-07-29T03:04:53.737Z,18.80
2022-07-29T03:05:53.623Z,18.87
2022-07-29T03:06:53.553Z,18.80
2022-07-29T03:07:53.476Z,18.82
2022-07-29T03:08:53.399Z,18.84
2022-07-29T03:09:53.327Z,18.90
2022-07-29T03:10:53.246Z,18.89
2022-07-29T03:11:53.174Z,18.92
2022-07-29T03:12:53.096Z,18.94
2022-07-29T03:13:53.028Z,18.94
2022-07-29T03:14:52.946Z,18.92
2022-07-29T03:15:52.921Z,19.01
2022-07-29T03:16:52.802Z,19.02
2022-07-29T03:17:52.721Z,18.98
2022-07-29T03:18:52.645Z,19.01
2022-07-29T03:19:52.571Z,19.02
2022-07-29T03:20:52.496Z,18.95
2022-07-29T03:21:52.422Z,19.01
2022-07-29T03:22:52.348Z,19.02
2022-07-29T03:23:52.269Z,18.97
2022-07-29T03:24:52.198Z,19.02
2022-07-29T03:25:52.120Z,18.84
2022-07-29T03:26:52.046Z,18.79
2022-07-29T03:27:51.974Z,18.86
2022-07-29T03:28:51.892Z,18.76
2022-07-29T03:29:51.822Z,18.73
2022-07-29T03:30:51.767Z,18.80
2022-07-29T03:31:51.671Z,18.77
2022-07-29T03:32:52.227Z,18.65
2022-07-29T03:33:51.519Z,18.69
2022-07-29T03:34:51.445Z,18.71
2022-07-29T03:35:51.370Z,18.68
2022-07-29T03:36:51.294Z,18.67
2022-07-29T03:37:51.219Z,18.65
2022-07-29T03:38:51.143Z,18.65
2022-07-29T03:39:51.083Z,18.68
2022-07-29T03:40:50.997Z,18.57
2022-07-29T03:41:50.916Z,18.53
2022-07-29T03:42:50.847Z,18.39
2022-07-29T03:43:50.765Z,18.35
2022-07-29T03:44:50.693Z,18.32
2022-07-29T03:45:50.618Z,18.28
2022-07-29T03:46:50.618Z,18.22
2022-07-29T03:47:52.883Z,18.40
2022-07-29T03:48:50.466Z,18.43
2022-07-29T03:49:50.312Z,18.37
2022-07-29T03:50:50.243Z,18.31
2022-07-29T03:51:50.160Z,18.37
2022-07-29T03:52:50.090Z,18.35
2022-07-29T03:53:50.013Z,18.40
2022-07-29T03:54:49.941Z,18.34
2022-07-29T03:55:49.860Z,18.32
2022-07-29T03:56:49.786Z,18.21
2022-07-29T03:57:49.709Z,18.16
2022-07-29T03:58:49.639Z,18.07
2022-07-29T03:59:49.557Z,18.06
2022-07-29T04:00:49.485Z,17.94
2022-07-29T04:01:49.415Z,18.06
2022-07-29T04:02:49.795Z,18.04
2022-07-29T04:03:49.295Z,17.96
2022-07-29T04:04:49.182Z,18.09
2022-07-29T04:05:49.108Z,18.02
2022-07-29T04:06:49.032Z,18.18
2022-07-29T04:07:48.956Z,18.03
2022-07-29T04:08:48.887Z,18.09
2022-07-29T04:09:48.806Z,18.14
2022-07-29T04:10:48.728Z,18.11
2022-07-29T04:12:01.979Z,18.09
2022-07-29T04:12:48.582Z,18.02
2022-07-29T04:13:48.501Z,18.07
2022-07-29T04:14:48.434Z,18.14
2022-07-29T04:15:48.466Z,18.04
2022-07-29T04:16:48.283Z,18.09
2022-07-29T04:17:48.203Z,18.19
2022-07-29T04:18:48.132Z,18.09
2022-07-29T04:19:48.048Z,18.22
2022-07-29T04:20:47.976Z,18.22
2022-07-29T04:21:47.903Z,18.14
2022-07-29T04:22:47.828Z,18.18
2022-07-29T04:23:53.753Z,18.21
2022-07-29T04:24:47.676Z,18.25
2022-07-29T04:25:47.600Z,18.25
2022-07-29T04:26:47.522Z,18.27
2022-07-29T04:27:47.444Z,18.24
2022-07-29T04:28:47.368Z,18.22
2022-07-29T04:29:56.571Z,18.25
2022-07-29T04:30:47.254Z,18.14
2022-07-29T04:31:47.159Z,18.18
2022-07-29T04:32:47.071Z,18.22
2022-07-29T04:33:46.992Z,18.25
2022-07-29T04:34:46.916Z,18.24
2022-07-29T04:35:52.309Z,18.27
2022-07-29T04:36:46.765Z,18.24
2022-07-29T04:37:46.687Z,18.19
2022-07-29T04:38:46.616Z,18.24
2022-07-29T04:39:46.544Z,18.11
2022-07-29T04:40:47.079Z,18.11
2022-07-29T04:41:46.445Z,18.21
2022-07-29T04:42:47.804Z,18.09
2022-07-29T04:43:46.233Z,18.07
2022-07-29T04:44:46.161Z,17.94
2022-07-29T04:45:46.084Z,17.94
2022-07-29T04:46:46.083Z,17.79
2022-07-29T04:47:45.929Z,17.76
2022-07-29T04:48:45.895Z,17.69
2022-07-29T04:49:45.781Z,17.69
2022-07-29T04:50:45.708Z,17.70
2022-07-29T04:51:45.628Z,17.54
2022-07-29T04:52:45.563Z,17.51
2022-07-29T04:53:45.479Z,17.54
2022-07-29T04:54:45.405Z,17.57
2022-07-29T04:55:45.330Z,17.57
2022-07-29T04:56:45.249Z,17.51
2022-07-29T04:57:45.175Z,17.64
2022-07-29T04:58:45.105Z,17.57
2022-07-29T04:59:45.028Z,17.67
2022-07-29T05:00:44.947Z,17.64
2022-07-29T05:01:44.935Z,17.63
2022-07-29T05:02:44.863Z,17.70
2022-07-29T05:03:44.720Z,17.74
2022-07-29T05:04:44.642Z,17.77
2022-07-29T05:05:44.569Z,17.73
2022-07-29T05:06:44.493Z,17.74
2022-07-29T05:07:44.416Z,17.79
2022-07-29T05:08:44.343Z,17.81
2022-07-29T05:09:44.263Z,17.76
2022-07-29T05:10:44.194Z,17.82
2022-07-29T05:11:44.109Z,17.82
2022-07-29T05:12:44.038Z,17.79
2022-07-29T05:13:45.693Z,17.85
2022-07-29T05:14:43.895Z,17.91
2022-07-29T05:15:43.977Z,17.89
2022-07-29T05:16:43.735Z,17.98
2022-07-29T05:17:43.663Z,17.95
2022-07-29T05:18:43.582Z,18.03
2022-07-29T05:19:43.510Z,18.03
2022-07-29T05:20:43.434Z,18.09
2022-07-29T05:21:43.358Z,18.06
2022-07-29T05:22:43.281Z,18.21
2022-07-29T05:23:43.202Z,18.14
2022-07-29T05:24:43.128Z,18.24
2022-07-29T05:25:44.832Z,18.19
2022-07-29T05:26:42.976Z,18.25
2022-07-29T05:27:42.904Z,18.35
2022-07-29T05:28:42.825Z,18.31
2022-07-29T05:29:45.608Z,18.37
2022-07-29T05:30:42.728Z,18.46
2022-07-29T05:31:42.594Z,18.39
2022-07-29T05:32:42.522Z,18.57
2022-07-29T05:33:42.466Z,18.58
2022-07-29T05:34:51.439Z,18.62
2022-07-29T05:35:42.296Z,18.59
2022-07-29T05:36:42.218Z,18.69
2022-07-29T05:37:42.143Z,18.69
2022-07-29T05:38:42.069Z,18.77
2022-07-29T05:39:48.782Z,18.77
2022-07-29T05:40:41.915Z,18.82
2022-07-29T05:41:41.845Z,18.84
2022-07-29T05:42:41.767Z,18.94
2022-07-29T05:43:41.687Z,18.97
2022-07-29T05:44:41.617Z,19.01
2022-07-29T05:45:49.510Z,19.13
2022-07-29T05:46:41.509Z,19.08
2022-07-29T05:47:41.386Z,19.17
2022-07-29T05:48:41.343Z,19.17
2022-07-29T05:49:41.238Z,19.20
2022-07-29T05:50:44.347Z,19.20
2022-07-29T05:51:41.085Z,19.32
2022-07-29T05:52:41.014Z,19.31
2022-07-29T05:53:40.937Z,19.31
2022-07-29T05:54:40.858Z,19.36
2022-07-29T05:55:40.787Z,19.46
2022-07-29T05:56:40.705Z,19.50
2022-07-29T05:57:40.635Z,19.61
2022-07-29T05:58:40.555Z,19.65
2022-07-29T05:59:40.483Z,19.75
2022-07-29T06:00:40.405Z,19.79
2022-07-29T06:01:40.408Z,19.83
2022-07-29T06:02:40.262Z,19.87
2022-07-29T06:03:40.186Z,20.01
2022-07-29T06:04:40.149Z,20.01
2022-07-29T06:05:40.030Z,20.08
2022-07-29T06:06:39.957Z,20.09
2022-07-29T06:07:39.884Z,20.20
2022-07-29T06:08:39.802Z,20.35
2022-07-29T06:09:39.729Z,20.34
2022-07-29T06:10:39.661Z,20.42
2022-07-29T06:11:39.577Z,20.49
2022-07-29T06:12:39.504Z,20.51
2022-07-29T06:13:39.432Z,20.53
2022-07-29T06:14:39.353Z,20.53
2022-07-29T06:15:39.319Z,20.68
2022-07-29T06:16:39.286Z,20.59
2022-07-29T06:17:39.128Z,20.68
2022-07-29T06:18:39.058Z,20.64
2022-07-29T06:19:38.978Z,20.66
2022-07-29T06:20:38.919Z,20.76
2022-07-29T06:21:42.167Z,20.79
2022-07-29T06:22:38.754Z,20.87
2022-07-29T06:23:38.678Z,20.91
2022-07-29T06:24:38.602Z,20.89
2022-07-29T06:25:38.532Z,20.94
2022-07-29T06:26:39.974Z,20.99
2022-07-29T06:27:38.379Z,20.99
2022-07-29T06:28:38.307Z,21.02
2022-07-29T06:29:38.235Z,21.14
2022-07-29T06:30:38.227Z,21.09
2022-07-29T06:31:38.083Z,21.11
2022-07-29T06:32:42.920Z,21.12
2022-07-29T06:33:37.934Z,21.24
2022-07-29T06:34:37.860Z,21.31
2022-07-29T06:35:41.884Z,21.41
2022-07-29T06:36:37.909Z,21.30
2022-07-29T06:37:37.633Z,21.42
2022-07-29T06:38:40.618Z,21.39
2022-07-29T06:39:37.486Z,21.44
2022-07-29T06:40:37.408Z,21.44
2022-07-29T06:41:37.337Z,21.49
2022-07-29T06:42:37.261Z,21.59
2022-07-29T06:43:50.381Z,21.76
2022-07-29T06:44:37.108Z,21.79
2022-07-29T06:45:37.039Z,22.00
2022-07-29T06:46:37.063Z,22.04
2022-07-29T06:47:36.887Z,21.95
2022-07-29T06:48:36.860Z,22.01
2022-07-29T06:49:36.739Z,22.05
2022-07-29T06:50:36.663Z,22.17
2022-07-29T06:51:36.593Z,22.12
2022-07-29T06:52:36.516Z,22.16
2022-07-29T06:53:36.445Z,22.24
2022-07-29T06:54:36.366Z,22.22
2022-07-29T06:55:36.295Z,22.22
2022-07-29T06:56:39.364Z,22.24
2022-07-29T06:57:36.151Z,22.32
2022-07-29T06:58:36.072Z,22.32
2022-07-29T06:59:36.234Z,22.42
2022-07-29T07:00:35.922Z,22.39
2022-07-29T07:01:35.963Z,22.54
2022-07-29T07:02:35.853Z,22.57
2022-07-29T07:03:35.701Z,22.74
2022-07-29T07:04:35.628Z,22.63
2022-07-29T07:05:35.552Z,22.63
2022-07-29T07:06:35.499Z,22.68
2022-07-29T07:07:35.407Z,22.71
2022-07-29T07:08:35.337Z,22.69
2022-07-29T07:09:40.070Z,22.79
2022-07-29T07:10:35.185Z,22.83
2022-07-29T07:11:35.112Z,22.94
2022-07-29T07:12:35.037Z,22.97
2022-07-29T07:13:34.968Z,22.97
2022-07-29T07:14:34.889Z,23.04
2022-07-29T07:15:39.824Z,23.04
2022-07-29T07:16:34.762Z,23.09
2022-07-29T07:17:34.667Z,23.11
2022-07-29T07:18:34.596Z,23.22
2022-07-29T07:19:34.523Z,23.14
2022-07-29T07:20:34.450Z,23.22
2022-07-29T07:21:34.384Z,23.29
2022-07-29T07:22:38.650Z,23.34
2022-07-29T07:23:34.229Z,23.40
2022-07-29T07:24:34.152Z,23.38
2022-07-29T07:25:34.087Z,23.31
2022-07-29T07:26:34.009Z,23.43
2022-07-29T07:27:33.934Z,23.45
2022-07-29T07:28:33.863Z,23.40
2022-07-29T07:29:33.792Z,23.42
2022-07-29T07:30:33.716Z,23.50
2022-07-29T07:31:33.737Z,23.46
2022-07-29T07:32:33.572Z,23.52
2022-07-29T07:33:33.498Z,23.63
2022-07-29T07:34:33.421Z,23.58
2022-07-29T07:35:33.355Z,23.63
2022-07-29T07:36:33.275Z,23.74
2022-07-29T07:37:33.208Z,23.70
2022-07-29T07:38:33.135Z,23.90
2022-07-29T07:39:33.064Z,23.93
2022-07-29T07:40:32.986Z,24.08
2022-07-29T07:41:32.917Z,24.22
2022-07-29T07:42:32.844Z,24.23
2022-07-29T07:43:32.772Z,24.32
2022-07-29T07:44:32.693Z,24.45
2022-07-29T07:45:32.690Z,24.56
2022-07-29T07:46:32.553Z,24.54
2022-07-29T07:47:32.478Z,24.69
2022-07-29T07:48:32.406Z,24.67
2022-07-29T07:49:32.336Z,24.75
2022-07-29T07:50:32.263Z,24.88
2022-07-29T07:51:32.190Z,24.85
2022-07-29T07:52:32.122Z,25.00
2022-07-29T07:53:32.047Z,25.10
2022-07-29T07:54:31.972Z,25.13
2022-07-29T07:55:47.446Z,25.20
2022-07-29T07:56:35.141Z,25.30
2022-07-29T07:57:31.756Z,25.34
2022-07-29T07:58:31.682Z,25.41
2022-07-29T07:59:31.614Z,25.47
2022-07-29T08:00:31.545Z,25.31
2022-07-29T08:01:55.733Z,25.37
2022-07-29T08:02:31.484Z,25.49
2022-07-29T08:03:31.334Z,25.53
2022-07-29T08:04:31.252Z,25.60
2022-07-29T08:05:31.182Z,25.55
2022-07-29T08:06:31.111Z,25.47
2022-07-29T08:07:31.043Z,25.64
2022-07-29T08:08:30.967Z,25.56
2022-07-29T08:09:31.044Z,25.57
2022-07-29T08:10:30.822Z,25.56
2022-07-29T08:11:30.751Z,25.45
2022-07-29T08:12:30.677Z,25.57
2022-07-29T08:13:30.611Z,25.59
2022-07-29T08:14:30.535Z,25.47
2022-07-29T08:15:30.466Z,25.46
2022-07-29T08:16:30.436Z,25.57
2022-07-29T08:17:30.329Z,25.62
2022-07-29T08:18:30.249Z,25.71
2022-07-29T08:19:30.185Z,25.75
2022-07-29T08:20:30.106Z,25.67
2022-07-29T08:21:30.038Z,25.70
2022-07-29T08:22:29.968Z,25.59
2022-07-29T08:23:46.415Z,25.65
2022-07-29T08:24:29.824Z,25.74
2022-07-29T08:25:29.755Z,25.94
2022-07-29T08:26:29.681Z,25.92
2022-07-29T08:27:44.623Z,25.96
2022-07-29T08:28:29.541Z,25.93
2022-07-29T08:29:29.468Z,25.94
2022-07-29T08:30:29.401Z,26.07
2022-07-29T08:31:29.365Z,25.96
2022-07-29T08:32:52.126Z,26.11
2022-07-29T08:33:29.187Z,26.16
2022-07-29T08:34:29.114Z,26.08
2022-07-29T08:35:33.340Z,26.24
2022-07-29T08:36:28.971Z,26.30
2022-07-29T08:37:28.899Z,26.46
2022-07-29T08:38:28.834Z,26.67
2022-07-29T08:39:28.761Z,26.79
2022-07-29T08:40:32.090Z,26.97
2022-07-29T08:41:28.621Z,27.04
2022-07-29T08:42:28.547Z,27.16
2022-07-29T08:43:28.482Z,27.16
2022-07-29T08:44:30.567Z,27.09
2022-07-29T08:45:28.372Z,27.24
2022-07-29T08:46:28.265Z,27.26
2022-07-29T08:47:28.197Z,27.27
2022-07-29T08:48:28.127Z,27.24
2022-07-29T08:49:28.216Z,27.32
2022-07-29T08:50:27.985Z,27.38
2022-07-29T08:51:27.920Z,27.38
2022-07-29T08:52:27.847Z,27.35
2022-07-29T08:53:27.838Z,27.44
2022-07-29T08:54:27.709Z,27.46
2022-07-29T08:55:27.636Z,27.45
2022-07-29T08:56:27.563Z,27.60
2022-07-29T08:57:27.496Z,27.67
2022-07-29T08:58:27.431Z,27.74
2022-07-29T08:59:27.361Z,27.73
2022-07-29T09:00:27.289Z,27.82
2022-07-29T09:01:36.511Z,27.91
2022-07-29T09:02:27.151Z,27.97
2022-07-29T09:03:27.131Z,28.13
2022-07-29T09:04:27.008Z,28.13
2022-07-29T09:05:26.943Z,28.24
2022-07-29T09:06:26.876Z,28.38
2022-07-29T09:07:26.803Z,28.46
2022-07-29T09:08:26.734Z,28.71
2022-07-29T09:09:26.667Z,28.73
2022-07-29T09:10:26.597Z,28.88
2022-07-29T09:11:26.528Z,28.93
2022-07-29T09:12:29.334Z,28.88
2022-07-29T09:13:26.389Z,29.01
2022-07-29T09:14:26.320Z,28.84
2022-07-29T09:15:26.249Z,28.84
2022-07-29T09:16:51.016Z,28.87
2022-07-29T09:17:26.162Z,28.91
2022-07-29T09:18:30.525Z,29.00
2022-07-29T09:19:25.981Z,29.01
2022-07-29T09:20:25.912Z,29.03
2022-07-29T09:21:25.841Z,29.11
2022-07-29T09:22:25.774Z,29.23
2022-07-29T09:23:25.701Z,29.43
2022-07-29T09:24:25.639Z,29.58
2022-07-29T09:25:25.568Z,29.68
2022-07-29T09:26:25.499Z,29.75
2022-07-29T09:27:25.431Z,29.81
2022-07-29T09:28:25.363Z,29.81
2022-07-29T09:29:25.294Z,29.90
2022-07-29T09:30:25.229Z,29.84
2022-07-29T09:31:25.258Z,29.89
2022-07-29T09:32:25.089Z,29.81
2022-07-29T09:33:25.046Z,29.83
2022-07-29T09:34:24.965Z,29.73
2022-07-29T09:35:24.893Z,29.73
2022-07-29T09:36:24.835Z,29.68
2022-07-29T09:37:24.752Z,29.50
2022-07-29T09:38:24.684Z,29.36
2022-07-29T09:39:24.620Z,29.22
2022-07-29T09:40:24.559Z,29.07
2022-07-29T09:41:24.478Z,29.00
2022-07-29T09:42:24.412Z,28.87
2022-07-29T09:43:24.342Z,28.73
2022-07-29T09:44:24.274Z,28.72
2022-07-29T09:45:24.211Z,28.93
2022-07-29T09:46:24.159Z,28.84
2022-07-29T09:47:24.071Z,28.96
2022-07-29T09:48:24.002Z,29.06
2022-07-29T09:49:23.965Z,29.06
2022-07-29T09:50:23.868Z,29.07
2022-07-29T09:51:38.316Z,29.25
2022-07-29T09:52:23.739Z,29.38
2022-07-29T09:53:23.667Z,29.43
2022-07-29T09:54:23.597Z,29.44
2022-07-29T09:55:23.527Z,29.36
2022-07-29T09:56:23.466Z,29.44
2022-07-29T09:57:26.171Z,29.44
2022-07-29T09:58:23.324Z,29.55
2022-07-29T09:59:23.269Z,29.66
2022-07-29T10:00:23.189Z,29.53
2022-07-29T10:01:23.165Z,29.48
2022-07-29T10:02:23.629Z,29.34
2022-07-29T10:03:23.022Z,29.26
2022-07-29T10:04:22.925Z,29.18
2022-07-29T10:05:22.858Z,29.25
2022-07-29T10:06:22.789Z,29.19
2022-07-29T10:07:22.718Z,29.11
2022-07-29T10:08:22.653Z,29.19
2022-07-29T10:09:22.589Z,29.11
2022-07-29T10:10:22.519Z,29.26
2022-07-29T10:11:22.450Z,29.25
2022-07-29T10:12:22.383Z,29.31
2022-07-29T10:13:22.313Z,29.36
2022-07-29T10:14:22.249Z,29.47
2022-07-29T10:15:22.182Z,29.50
2022-07-29T10:16:22.172Z,29.66
2022-07-29T10:17:22.048Z,29.74
2022-07-29T10:18:22.133Z,29.84
2022-07-29T10:19:21.912Z,29.84
2022-07-29T10:20:21.861Z,29.74
2022-07-29T10:21:22.664Z,29.80
2022-07-29T10:22:50.390Z,29.75
2022-07-29T10:23:21.643Z,29.68
2022-07-29T10:24:21.579Z,29.68
2022-07-29T10:25:21.510Z,29.46
2022-07-29T10:26:21.443Z,29.46
2022-07-29T10:27:21.374Z,29.47
2022-07-29T10:28:21.308Z,29.65
2022-07-29T10:29:21.477Z,29.69
2022-07-29T10:30:21.170Z,29.80
2022-07-29T10:31:21.186Z,29.95
2022-07-29T10:32:21.037Z,30.18
2022-07-29T10:33:20.974Z,30.34
2022-07-29T10:34:20.909Z,30.56
2022-07-29T10:35:20.836Z,30.56
2022-07-29T10:36:20.772Z,30.94
2022-07-29T10:37:20.701Z,31.14
2022-07-29T10:38:20.639Z,31.23
2022-07-29T10:39:22.417Z,31.27
2022-07-29T10:40:20.503Z,31.39
2022-07-29T10:41:20.434Z,31.53
2022-07-29T10:42:20.396Z,31.71
2022-07-29T10:43:20.307Z,31.80
2022-07-29T10:44:23.037Z,31.89
2022-07-29T10:45:20.170Z,31.95
2022-07-29T10:46:20.152Z,32.06
2022-07-29T10:47:20.038Z,32.17
2022-07-29T10:48:19.975Z,32.21
2022-07-29T10:49:19.931Z,32.24
2022-07-29T10:50:19.839Z,32.40
2022-07-29T10:51:19.775Z,32.18
2022-07-29T10:52:19.710Z,32.32
2022-07-29T10:53:19.648Z,32.40
2022-07-29T10:54:19.579Z,32.46
2022-07-29T10:55:19.510Z,32.57
2022-07-29T10:56:19.445Z,32.42
2022-07-29T10:57:19.379Z,32.09
2022-07-29T10:58:19.313Z,31.91
2022-07-29T10:59:19.248Z,31.64
2022-07-29T11:00:19.180Z,31.46
2022-07-29T11:01:37.054Z,31.14
2022-07-29T11:02:40.884Z,30.96
2022-07-29T11:03:19.001Z,30.85
2022-07-29T11:04:18.920Z,30.85
2022-07-29T11:05:18.854Z,30.78
2022-07-29T11:06:28.019Z,30.74
2022-07-29T11:07:18.725Z,30.83
2022-07-29T11:08:20.279Z,31.01
2022-07-29T11:10:18.528Z,31.20
2022-07-29T11:11:18.462Z,31.30
2022-07-29T11:12:18.395Z,31.42
2022-07-29T11:13:18.328Z,31.34
2022-07-29T11:14:18.268Z,31.41
2022-07-29T11:15:18.214Z,31.39
2022-07-29T11:16:18.132Z,31.41
2022-07-29T11:17:18.065Z,31.41
2022-07-29T11:18:18.003Z,31.41
2022-07-29T11:19:21.520Z,31.55
2022-07-29T11:20:17.880Z,31.63
2022-07-29T11:21:17.805Z,31.80
2022-07-29T11:22:17.743Z,31.90
2022-07-29T11:23:17.673Z,32.06
2022-07-29T11:24:28.601Z,32.03
2022-07-29T11:25:17.546Z,31.90
2022-07-29T11:26:18.552Z,31.71
2022-07-29T11:27:18.174Z,31.41
2022-07-29T11:28:22.821Z,31.41
2022-07-29T11:29:17.283Z,31.41
2022-07-29T11:30:17.220Z,31.27
2022-07-29T11:31:17.161Z,31.33
2022-07-29T11:32:18.306Z,31.42
2022-07-29T11:33:17.025Z,31.44
2022-07-29T11:34:16.962Z,31.49
2022-07-29T11:35:18.424Z,31.60
2022-07-29T11:36:17.136Z,31.68
2022-07-29T11:37:17.708Z,32.02
2022-07-29T11:38:16.696Z,32.06
2022-07-29T11:39:16.631Z,32.06
2022-07-29T11:40:16.570Z,32.08
2022-07-29T11:41:16.499Z,32.17
2022-07-29T11:42:16.522Z,32.42
2022-07-29T11:43:16.370Z,32.28
2022-07-29T11:44:16.309Z,32.05
2022-07-29T11:45:44.122Z,31.71
2022-07-29T11:46:16.180Z,31.61
2022-07-29T11:47:16.110Z,31.66
2022-07-29T11:48:28.590Z,31.67
2022-07-29T11:49:16.023Z,31.55
2022-07-29T11:50:15.921Z,31.63
2022-07-29T11:51:15.851Z,31.58
2022-07-29T11:52:15.800Z,31.66
2022-07-29T11:54:15.775Z,31.89
2022-07-29T11:55:15.589Z,32.09
2022-07-29T11:56:17.079Z,32.18
2022-07-29T11:57:15.460Z,32.39
2022-07-29T11:58:15.403Z,32.53
2022-07-29T11:59:15.514Z,32.58
2022-07-29T12:00:18.544Z,32.67
2022-07-29T12:01:15.224Z,32.77
2022-07-29T12:02:37.460Z,32.83
2022-07-29T12:03:15.115Z,32.75
2022-07-29T12:04:15.014Z,32.69
2022-07-29T12:05:24.041Z,32.62
2022-07-29T12:06:15.444Z,32.64
2022-07-29T12:07:03.416Z,31.79
2022-07-29T12:07:15.685Z,32.47
2022-07-29T12:08:15.025Z,32.40
2022-07-29T12:09:14.859Z,32.31
2022-07-29T12:10:19.596Z,32.35
2022-07-29T12:11:14.563Z,32.31
2022-07-29T12:12:14.496Z,32.05
2022-07-29T12:13:14.451Z,31.79
2022-07-29T12:14:14.369Z,31.79
2022-07-29T12:15:14.303Z,31.76
2022-07-29T12:16:14.573Z,31.68
2022-07-29T12:17:14.176Z,31.84
2022-07-29T12:18:14.133Z,31.99
2022-07-29T12:19:14.041Z,32.11
2022-07-29T12:20:13.983Z,32.35
2022-07-29T12:21:13.918Z,32.45
2022-07-29T12:22:13.852Z,32.54
2022-07-29T12:23:13.788Z,32.57
2022-07-29T12:24:13.725Z,32.64
2022-07-29T12:25:35.253Z,32.51
2022-07-29T12:26:25.568Z,32.42
2022-07-29T12:27:13.531Z,32.36
2022-07-29T12:28:14.271Z,32.31
2022-07-29T12:29:15.423Z,32.27
2022-07-29T12:30:13.335Z,32.05
2022-07-29T12:31:13.316Z,32.11
2022-07-29T12:32:14.580Z,31.94
2022-07-29T12:33:13.142Z,31.94
2022-07-29T12:34:13.086Z,31.87
2022-07-29T12:35:13.018Z,31.82
2022-07-29T12:36:17.721Z,31.78
2022-07-29T12:37:12.881Z,31.67
2022-07-29T12:38:12.817Z,31.67
2022-07-29T12:39:12.749Z,31.68
2022-07-29T12:40:12.692Z,31.66
2022-07-29T12:41:12.623Z,31.66
2022-07-29T12:42:13.953Z,31.63
2022-07-29T12:43:12.492Z,31.55
2022-07-29T12:44:12.431Z,31.46
2022-07-29T12:45:12.365Z,31.41
2022-07-29T12:46:12.331Z,31.36
2022-07-29T12:47:12.227Z,31.29
2022-07-29T12:48:12.171Z,31.26
2022-07-29T12:49:12.255Z,31.21
2022-07-29T12:50:12.035Z,31.16
2022-07-29T12:51:11.968Z,31.14
2022-07-29T12:52:11.907Z,31.08